Nearby Airport METAR Reports

 

KVSF - Springfield, Vermont, USA
Distance from station: WSW 8mi, 12km
Updated: 9:44pm
Light snow, Overcast
Light snow, Overcast
 Wind from S
Wind: S 3 mph , 6 km/h
Temperature: 28°F , -2°C
Dew Point: 23°F , -5°C
Humidity: 80%
Barometer: 30.11 inHg , 1019.6 hPa
Summary: Light Snow
Clouds: Overcast
Visibility: 1 3/4 miles , 2.8 km
Cloud details: Overcast 3100 ft
2018/02/18 02:44 KVSF 180244Z AUTO 19003KT 1 3/4SM -SN OVC031 M02/M05 A3011 RMK AO2 SNB21 P0000 T10221050
KLEB - Lebanon, New Hampshire, USA
Distance from station: N 18mi, 29km
Updated: 9:44pm
Haze, Overcast
Haze, Overcast
 Wind from S
Wind: S 12 mph , 19 km/h, Gust: 18 mph , 30 km/h
Temperature: 30°F , -1°C
Wind Chill: 20°F , -7°C
Dew Point: 21°F , -6°C
Humidity: 69%
Barometer: 30.10 inHg , 1019.3 hPa
Summary: Haze
Clouds: Overcast
Visibility: 6 miles , 10 km
Cloud details: Overcast 2600 ft
2018/02/18 02:44 KLEB 180244Z 19010G16KT 6SM HZ OVC026 M01/M06 A3010 RMK AO2 T10061061
KRUT - Rutland State, Vermont, USA
Distance from station: WNW 31mi, 50km
Updated: 9:46pm
Light snow, Mist, Overcast
Light snow, Mist, Overcast
 Wind from ESE
Wind: ESE 7 mph , 11 km/h
Temperature: 27°F , -3°C
Wind Chill: 19°F , -7°C
Dew Point: 25°F , -4°C
Humidity: 93%
Barometer: 30.07 inHg , 1018.3 hPa
Summary: Light snow, Mist
Clouds: Overcast
Visibility: 1 3/4 miles , 2.8 km
Cloud details: Mostly cloudy 1300 ft
Overcast 2000 ft
2018/02/18 02:46 KRUT 180246Z AUTO 12006KT 1 3/4SM -SN BR BKN013 OVC020 M03/M04 A3007 RMK AO2 VIS 1 1/4V2 1/2 P0000 FZRANO $
 
KEEN - Keene/Dillant, New Hampshire, USA
Distance from station: S 34mi, 55km
Updated: 9:32pm
Light snow, Mist, Overcast
Light snow, Mist, Overcast
 Wind from S
Wind: S 7 mph , 11 km/h
Temperature: 28°F , -2°C
Wind Chill: 21°F , -6°C
Dew Point: 27°F , -3°C
Humidity: 93%
Barometer: 30.11 inHg , 1019.6 hPa
Summary: Light snow, Mist
Clouds: Overcast
Visibility: 1 3/4 miles , 2.8 km
Cloud details: Mostly cloudy 1200 ft
Overcast 1900 ft
2018/02/18 02:32 KEEN 180232Z AUTO 18006KT 1 3/4SM -SN BR BKN012 OVC019 M02/M03 A3011 RMK AO2 P0000 FZRANO
K1P1 - Plymouth, New Hampshire, USA
Distance from station: NE 42mi, 67km
Updated: 9:55pm
Overcast
Overcast
 Wind from NE
Wind: NE 3 mph , 6 km/h
Temperature: 28°F , -2°C
Dew Point: 18°F , -8°C
Humidity: 64%
Barometer: 30.14 inHg , 1020.7 hPa
Clouds: Overcast
Visibility: 10 miles , 16 km
Cloud details: Mostly cloudy 4600 ft
Overcast 6000 ft
2018/02/18 02:55 K1P1 180255Z AUTO 05003KT 10SM BKN046 OVC060 M02/M08 A3014 RMK AO2 T10171085
KAFN - Jaffrey, New Hampshire, USA
Distance from station: SSE 44mi, 70km
Updated: 9:50pm
Light snow, Mist, Overcast
Light snow, Mist, Overcast
 Wind from SSW
Wind: SSW 3 mph , 6 km/h
Temperature: 28°F , -2°C
Dew Point: 27°F , -3°C
Humidity: 93%
Barometer: 30.07 inHg , 1018.3 hPa
Summary: Light snow, Mist
Clouds: Overcast
Visibility: 1 1/4 miles , 2 km
Cloud details: Few Clouds 700 ft
Overcast 1100 ft
2018/02/18 02:50 KAFN 180250Z AUTO 21003KT 1 1/4SM -SN BR FEW007 OVC011 M02/M03 A3007 RMK AO2 P0004
 
KCON - Concord, New Hampshire, USA
Distance from station: ESE 45mi, 73km
Updated: 9:44pm
Light snow, Overcast
Light snow, Overcast
 Wind from SSE
Wind: SSE 9 mph , 15 km/h
Temperature: 28°F , -2°C
Wind Chill: 19°F , -7°C
Dew Point: 25°F , -4°C
Humidity: 86%
Barometer: 30.14 inHg , 1020.7 hPa
Summary: Light Snow
Clouds: Overcast
Visibility: 1 3/4 miles , 2.8 km
Cloud details: Partly cloudy 2700 ft
Overcast 3500 ft
2018/02/18 02:44 KCON 180244Z AUTO 16008KT 1 3/4SM -SN SCT027 OVC035 M02/M04 A3014 RMK AO2 SNB36 P0000 T10171044
KLCI - Laconia Muni, New Hampshire, USA
Distance from station: ENE 49mi, 80km
Updated: 8:56pm
Overcast
Overcast
 Wind from SSE
Wind: SSE 9 mph , 15 km/h
Temperature: 30°F , -1°C
Wind Chill: 22°F , -6°C
Dew Point: 18°F , -8°C
Humidity: 59%
Barometer: 30.15 inHg , 1021 hPa
Clouds: Overcast
Visibility: 10 miles , 16 km
Cloud details: Partly cloudy 4600 ft
Mostly cloudy 8000 ft
Overcast 10000 ft
2018/02/18 01:56 KLCI 180156Z AUTO 15008KT 10SM SCT046 BKN080 OVC100 M01/M08 A3015 RMK AO2 SLP230 T10111078 FZRANO
KDDH - Bennington, Vermont, USA
Distance from station: SW 55mi, 89km
Updated: 9:46pm
Light snow, Overcast
Light snow, Overcast
 Wind from calm
Wind: Calm
Temperature: 30°F , -1°C
Dew Point: 25°F , -4°C
Humidity: 80%
Barometer: 30.06 inHg , 1017.9 hPa
Summary: Light Snow
Clouds: Overcast
Visibility: 1 mile , 2 km
Cloud details: Overcast 1400 ft
2018/02/18 02:46 KDDH 180246Z AUTO 00000KT 1SM -SN VV014 M01/M04 A3006 RMK AO2 P0002 T10111039
 
K6B0 - Middlebury, Vermont, USA
Distance from station: NW 56mi, 90km
Updated: 9:35pm
Light snow, Overcast
Light snow, Overcast
 Wind from SSE
Wind: SSE 9 mph , 15 km/h
Temperature: 28°F , -2°C
Wind Chill: 19°F , -7°C
Dew Point: 23°F , -5°C
Humidity: 80%
Barometer: 30.08 inHg , 1018.6 hPa
Summary: Light Snow
Clouds: Overcast
Visibility: 2 miles , 3 km
Cloud details: Overcast 1300 ft
2018/02/18 02:35 K6B0 180235Z AUTO 16008KT 130V190 2SM -SN OVC013 M02/M05 A3008 RMK AO2 T10161048
KMHT - Manchester, New Hampshire, USA
Distance from station: ESE 56mi, 90km
Updated: 9:35pm
Light snow, Mist, Overcast
Light snow, Mist, Overcast
 Wind from S
Wind: S 7 mph , 11 km/h
Temperature: 30°F , -1°C
Wind Chill: 23°F , -5°C
Dew Point: 27°F , -3°C
Humidity: 86%
Barometer: 30.14 inHg , 1020.7 hPa
Summary: Light snow, Mist
Clouds: Overcast
Visibility: 1 1/4 miles , 2 km
Cloud details: Few Clouds 700 ft
Mostly cloudy 1400 ft
Overcast 2500 ft
2018/02/18 02:35 KMHT 180235Z 17006KT 1 1/4SM -SN BR FEW007 BKN014 OVC025 M01/M03 A3014 RMK AO2 P0000 T10111028
KORE - Orange, Massachusetts, USA
Distance from station: S 56mi, 90km
Updated: 9:39pm
Light snow, Mist, Overcast
Light snow, Mist, Overcast
 Wind from calm
Wind: Calm
Temperature: 28°F , -2°C
Dew Point: 27°F , -3°C
Humidity: 93%
Barometer: 30.11 inHg , 1019.6 hPa
Summary: Light snow, Mist
Clouds: Overcast
Visibility: 1 mile , 2 km
Cloud details: Overcast 1200 ft
2018/02/18 02:39 KORE 180239Z AUTO 00000KT 1SM -SN BR VV012 M02/M03 A3011 RMK AO2 PRESFR P0004 T10221028
 
KMPV - Montpelier/Barre, Vermont, USA
Distance from station: N 58mi, 93km
Updated: 8:51pm
Overcast
Overcast
 Wind from S
Wind: S 12 mph , 19 km/h
Temperature: 30°F , -1°C
Wind Chill: 20°F , -7°C
Dew Point: 10°F , -12°C
Humidity: 43%
Barometer: 30.07 inHg , 1018.3 hPa
Clouds: Overcast
Visibility: 10 miles , 16 km
Cloud details: Partly cloudy 7500 ft
Overcast 10000 ft
2018/02/18 01:51 KMPV 180151Z AUTO 19010KT 10SM SCT075 OVC100 M01/M12 A3007 RMK AO2 SLP204 T10111122
KASH - Nashua/Boire Fld, New Hampshire, USA
Distance from station: SE 59mi, 95km
Updated: 9:45pm
Light snow, Mist, Overcast
Light snow, Mist, Overcast
 Wind from calm
Wind: Calm
Temperature: 28°F , -2°C
Dew Point: 28°F , -2°C
Humidity: 100%
Barometer: 30.14 inHg , 1020.7 hPa
Summary: Light snow, Mist
Clouds: Overcast
Visibility: 1 1/4 miles , 2 km
Cloud details: Few Clouds 400 ft
Overcast 1500 ft
2018/02/18 02:45 KASH 180245Z AUTO 00000KT 1 1/4SM -SN BR FEW004 OVC015 M02/M02 A3014 RMK AO2 P0000
KAQW - North Adams, Massachusetts, USA
Distance from station: SW 62mi, 99km
Updated: 9:49pm
Light snow, Mist, Overcast
Light snow, Mist, Overcast
 Wind from E
Wind: E 6 mph , 9 km/h
Temperature: 28°F , -2°C
Wind Chill: 21°F , -6°C
Dew Point: 27°F , -3°C
Humidity: 93%
Barometer: 30.08 inHg , 1018.6 hPa
Summary: Light snow, Mist
Clouds: Overcast
Visibility: 3/4 mile , 1.2 km
Cloud details: Overcast 1100 ft
2018/02/18 02:49 KAQW 180249Z AUTO 08005KT 3/4SM -SN BR VV011 M02/M03 A3008 RMK AO2 P0002
 
KGFL - Glens Falls, New York, USA
Distance from station: W 63mi, 101km
Updated: 9:17pm
Light snow, Mist, Overcast
Light snow, Mist, Overcast
 Wind from S
Wind: S 8 mph , 13 km/h
Temperature: 28°F , -2°C
Wind Chill: 20°F , -7°C
Dew Point: 27°F , -3°C
Humidity: 93%
Barometer: 30.09 inHg , 1019 hPa
Summary: Light snow, Mist
Clouds: Overcast
Visibility: 2 1/2 miles , 4 km
Cloud details: Mostly cloudy 1400 ft
Mostly cloudy 2000 ft
Overcast 2700 ft
2018/02/18 02:17 KGFL 180217Z AUTO 19007KT 2 1/2SM -SN BR BKN014 BKN020 OVC027 M02/M03 A3009 RMK AO2 SNB0154 P0000 T10171033
KFIT - Fitchburg, Massachusetts, USA
Distance from station: SSE 65mi, 105km
Updated: 9:44pm
Light snow, Mist, Overcast
Light snow, Mist, Overcast
 Wind from SE
Wind: SE 6 mph , 9 km/h
Temperature: 30°F , -1°C
Wind Chill: 24°F , -4°C
Dew Point: 28°F , -2°C
Humidity: 93%
Barometer: 30.13 inHg , 1020.3 hPa
Summary: Light snow, Mist
Clouds: Overcast
Visibility: 1 1/4 miles , 2 km
Cloud details: Overcast 1500 ft
2018/02/18 02:44 KFIT 180244Z AUTO 14005KT 1 1/4SM -SN BR OVC015 M01/M02 A3013 RMK AO2 P0004 T10061017 TSNO
KDAW - Rochester, New Hampshire, USA
Distance from station: E 73mi, 118km
Updated: 9:33pm
Light snow, Mist, Overcast
Light snow, Mist, Overcast
 Wind from SSE
Wind: SSE 5 mph , 7 km/h
Temperature: 30°F , -1°C
Wind Chill: 25°F , -4°C
Dew Point: 28°F , -2°C
Humidity: 93%
Barometer: 30.15 inHg , 1021 hPa
Summary: Light snow, Mist
Clouds: Overcast
Visibility: 2 miles , 3 km
Cloud details: Few Clouds 900 ft
Overcast 2100 ft
2018/02/18 02:33 KDAW 180233Z AUTO 16004KT 2SM -SN BR FEW009 OVC021 M01/M02 A3015 RMK AO2 P0000 T10111017
 
K1V4 - St. Johnsbury, Vermont, USA
Distance from station: NNE 74mi, 119km
Updated: 8:54pm

 
Temperature: 30°F , -1°C
Dew Point: 9°F , -13°C
Humidity: 40%
Barometer: 30.05 inHg , 1017.6 hPa
2018/02/18 01:54 K1V4 180154Z AUTO M01/M13 A3005 RMK AO1 SLP192 T10111128
KLWM - Lawrence, Massachusetts, USA
Distance from station: SE 77mi, 124km
Updated: 9:36pm
Light snow, Mist, Overcast
Light snow, Mist, Overcast
 Wind from varies
Wind: varies 3 mph , 6 km/h
Temperature: 34°F , 1°C
Dew Point: 28°F , -2°C
Humidity: 81%
Barometer: 30.18 inHg , 1022 hPa
Summary: Light snow, Mist
Clouds: Overcast
Visibility: 1 mile , 2 km
Cloud details: Few Clouds 600 ft
Overcast 1100 ft
2018/02/18 02:36 KLWM 180236Z VRB03KT 1SM -SN BR FEW006 OVC011 01/M02 A3018 RMK AO2 PRESFR P0002 T00061017

free counter page views since 4/29/2009